»·PEaware :: JUS326 KELP-KABQ

JUS326 :: KELP-KABQ

FLIGHT INFORMATION

Flight Status: Arrived
Operator:
USA Jet
More flights by this operator :: More flights under this callsign
Pilot: Erik S. (3779)
Aircraft: Unknown
(DC9)
More flights by this aircraft type
Origin: KELP El Paso Intl
United States
Destination: KABQ Albuquerque Intl Sunport
United States
More flights between these airports :: More routes between these airports
Route: +RUTER TCS ABQ
File this flight plan on PilotEdge
Remarks:
Altitude:
(Current/Filed)
26,000ft
Speed:
(Current/Filed)
478kts
Departed: 11-Oct-17 10:46 AM
Arrived: 11-Oct-17 11:20 AM
Distance/Time
Traveled:
194nm/0:34
Distance/Time
To Go:
Arrived

Flight Plot

Page will automatically refresh every two minutes.

Flight plan parsing failed; only flown route is shown


Map Options




Map Legend


Flown Route
Filed Route
Departure Airport
Arrival Airport
Navaid (VOR, NDB)
Fix

Horizontal Profiles

Position Reports

Time Latitude Longitude Heading Altitude Ground
Speed
11-Oct-17 10:27 31.816091 -106.371429 140 3965ft 0kts
11-Oct-17 10:28 31.816091 -106.371429 140 3965ft 0kts
11-Oct-17 10:29 31.816091 -106.371429 140 3965ft 0kts
11-Oct-17 10:30 31.816091 -106.371429 140 3965ft 0kts
11-Oct-17 10:31 31.816091 -106.371429 140 3965ft 0kts
11-Oct-17 10:32 31.816091 -106.371429 140 3965ft 0kts
11-Oct-17 10:33 31.816091 -106.371429 140 3965ft 0kts
11-Oct-17 10:34 31.816091 -106.371429 140 3965ft 0kts
11-Oct-17 10:35 31.816091 -106.371429 140 3965ft 0kts
11-Oct-17 10:36 31.816091 -106.371429 140 3965ft 0kts
11-Oct-17 10:37 31.816091 -106.371429 140 3965ft 0kts
11-Oct-17 10:38 31.816091 -106.371429 140 3965ft 0kts
11-Oct-17 10:39 31.816091 -106.371429 140 3965ft 0kts
11-Oct-17 10:40 31.816091 -106.371429 140 3965ft 0kts
11-Oct-17 10:41 31.816091 -106.371429 140 3965ft 0kts
11-Oct-17 10:42 31.816009 -106.371349 140 3965ft 0kts
11-Oct-17 10:43 31.817290 -106.373519 306 3965ft 24kts
11-Oct-17 10:44 31.812766 -106.380540 230 3965ft 31kts
11-Oct-17 10:45 31.807288 -106.387842 223 3965ft 27kts
11-Oct-17 10:46 31.803300 -106.392184 223 3965ft 0kts
11-Oct-17 10:47 31.801152 -106.392341 282 3965ft 18kts
11-Oct-17 10:48 31.800331 -106.399213 227 3965ft 9kts
11-Oct-17 10:49 31.800083 -106.401269 318 3965ft 16kts
11-Oct-17 10:50 31.813969 -106.382399 49 4137ft 181kts
11-Oct-17 10:51 31.848477 -106.335441 48 7562ft 209kts
11-Oct-17 10:52 31.898235 -106.323719 300 9779ft 258kts
11-Oct-17 10:53 31.926239 -106.408723 307 12878ft 301kts
11-Oct-17 10:54 31.986898 -106.490347 308 15117ft 360kts
11-Oct-17 10:55 32.053574 -106.581181 307 18254ft 376kts
11-Oct-17 10:56 32.123094 -106.676237 308 21042ft 393kts
11-Oct-17 10:57 32.195592 -106.774931 307 23533ft 408kts
11-Oct-17 10:58 32.270413 -106.878471 308 25746ft 423kts
11-Oct-17 10:59 32.379667 -106.935566 340 26304ft 442kts
11-Oct-17 11:00 32.500374 -106.980465 340 26309ft 477kts
11-Oct-17 11:01 32.627285 -107.028609 340 26303ft 481kts
11-Oct-17 11:02 32.753862 -107.076809 340 26289ft 478kts
11-Oct-17 11:03 32.880293 -107.124654 339 26292ft 478kts
11-Oct-17 11:04 33.006557 -107.172901 339 26292ft 478kts
11-Oct-17 11:05 33.133022 -107.221490 338 26292ft 477kts
11-Oct-17 11:06 33.258742 -107.269942 338 26292ft 477kts
11-Oct-17 11:07 33.389684 -107.254405 12 26296ft 493kts
11-Oct-17 11:08 33.522483 -107.218310 9 26292ft 490kts
11-Oct-17 11:09 33.655450 -107.183750 9 26209ft 487kts
11-Oct-17 11:10 33.785317 -107.149886 9 24480ft 484kts
11-Oct-17 11:11 33.915426 -107.115848 9 24270ft 469kts
11-Oct-17 11:13 34.042427 -107.082526 9 22511ft 466kts
11-Oct-17 11:14 34.166240 -107.049914 9 21280ft 434kts
11-Oct-17 11:15 34.284212 -107.018823 9 21292ft 436kts
11-Oct-17 11:16 34.402597 -106.987487 9 21292ft 436kts
11-Oct-17 11:17 34.520575 -106.956148 9 19505ft 437kts
11-Oct-17 11:18 34.636235 -106.925327 9 16497ft 418kts
11-Oct-17 11:19 34.746242 -106.896013 9 13112ft 395kts
11-Oct-17 11:20 34.844203 -106.851866 28 10740ft 364kts
11-Oct-17 11:21 34.913475 -106.783401 56 10338ft 287kts
11-Oct-17 11:22 34.953765 -106.718706 6 9406ft 211kts
11-Oct-17 11:23 34.986333 -106.682772 79 6782ft 195kts
11-Oct-17 11:24 35.013857 -106.640552 42 5712ft 146kts
11-Oct-17 11:25 35.034202 -106.618231 239 5361ft 18kts
11-Oct-17 11:26 35.034119 -106.618370 230 5361ft 0kts
11-Oct-17 11:27 35.032253 -106.620702 223 5361ft 24kts
11-Oct-17 11:28 35.031624 -106.623706 315 5361ft 0kts

Navigation Log

Ident Type
Flight plan parsing failed, navigation log unavailable